sensor_id;sensor_type;location;lat;lon;timestamp;P1;durP1;ratioP1;P2;durP2;ratioP2
48777;SDS011;34578;0.000;0.000;2022-08-19T00:00:50;1.63;;;1.40;;
48777;SDS011;34578;0.000;0.000;2022-08-19T00:05:50;1.63;;;1.53;;
48777;SDS011;34578;0.000;0.000;2022-08-19T00:10:50;1.70;;;1.60;;
48777;SDS011;34578;0.000;0.000;2022-08-19T00:15:51;1.30;;;1.20;;
48777;SDS011;34578;0.000;0.000;2022-08-19T00:20:51;1.35;;;1.23;;
48777;SDS011;34578;0.000;0.000;2022-08-19T00:25:52;1.33;;;1.23;;
48777;SDS011;34578;0.000;0.000;2022-08-19T00:30:53;1.30;;;1.20;;
48777;SDS011;34578;0.000;0.000;2022-08-19T00:35:54;2.13;;;1.50;;
48777;SDS011;34578;0.000;0.000;2022-08-19T00:40:55;1.98;;;1.80;;
48777;SDS011;34578;0.000;0.000;2022-08-19T00:45:56;1.48;;;1.30;;
48777;SDS011;34578;0.000;0.000;2022-08-19T00:50:56;1.42;;;1.33;;
48777;SDS011;34578;0.000;0.000;2022-08-19T00:55:58;1.58;;;1.38;;
48777;SDS011;34578;0.000;0.000;2022-08-19T01:01:01;1.05;;;0.95;;
48777;SDS011;34578;0.000;0.000;2022-08-19T01:06:04;1.35;;;1.10;;
48777;SDS011;34578;0.000;0.000;2022-08-19T01:11:05;1.13;;;1.02;;
48777;SDS011;34578;0.000;0.000;2022-08-19T01:16:10;1.65;;;1.40;;
48777;SDS011;34578;0.000;0.000;2022-08-19T01:21:15;1.50;;;1.40;;
48777;SDS011;34578;0.000;0.000;2022-08-19T01:26:23;1.50;;;1.40;;
48777;SDS011;34578;0.000;0.000;2022-08-19T01:31:25;1.50;;;1.40;;
48777;SDS011;34578;0.000;0.000;2022-08-19T01:36:33;1.47;;;1.37;;
48777;SDS011;34578;0.000;0.000;2022-08-19T01:41:41;1.00;;;1.00;;
48777;SDS011;34578;0.000;0.000;2022-08-19T01:46:42;1.48;;;1.38;;
48777;SDS011;34578;0.000;0.000;2022-08-19T01:51:43;1.05;;;1.00;;
48777;SDS011;34578;0.000;0.000;2022-08-19T01:56:44;1.50;;;1.40;;
48777;SDS011;34578;0.000;0.000;2022-08-19T02:01:44;1.20;;;1.10;;
48777;SDS011;34578;0.000;0.000;2022-08-19T02:06:45;1.60;;;1.50;;
48777;SDS011;34578;0.000;0.000;2022-08-19T02:11:45;1.37;;;1.27;;
48777;SDS011;34578;0.000;0.000;2022-08-19T02:16:45;1.47;;;1.37;;
48777;SDS011;34578;0.000;0.000;2022-08-19T02:21:46;1.67;;;1.57;;
48777;SDS011;34578;0.000;0.000;2022-08-19T02:26:46;1.30;;;1.20;;
48777;SDS011;34578;0.000;0.000;2022-08-19T02:31:47;1.40;;;1.30;;
48777;SDS011;34578;0.000;0.000;2022-08-19T02:36:48;1.40;;;1.20;;
48777;SDS011;34578;0.000;0.000;2022-08-19T02:41:48;1.40;;;1.30;;
48777;SDS011;34578;0.000;0.000;2022-08-19T02:46:49;1.25;;;1.15;;
48777;SDS011;34578;0.000;0.000;2022-08-19T02:51:50;1.60;;;1.50;;
48777;SDS011;34578;0.000;0.000;2022-08-19T02:56:50;1.40;;;1.30;;
48777;SDS011;34578;0.000;0.000;2022-08-19T03:01:50;1.40;;;1.30;;
48777;SDS011;34578;0.000;0.000;2022-08-19T03:06:51;1.10;;;1.10;;
48777;SDS011;34578;0.000;0.000;2022-08-19T03:11:51;1.42;;;1.33;;
48777;SDS011;34578;0.000;0.000;2022-08-19T03:16:52;1.00;;;1.00;;
48777;SDS011;34578;0.000;0.000;2022-08-19T03:21:52;1.33;;;1.23;;
48777;SDS011;34578;0.000;0.000;2022-08-19T03:26:54;1.20;;;1.10;;
48777;SDS011;34578;0.000;0.000;2022-08-19T03:31:58;1.30;;;1.20;;
48777;SDS011;34578;0.000;0.000;2022-08-19T03:37:03;2.42;;;2.22;;
48777;SDS011;34578;0.000;0.000;2022-08-19T03:42:05;1.40;;;1.30;;
48777;SDS011;34578;0.000;0.000;2022-08-19T03:47:06;1.17;;;1.10;;
48777;SDS011;34578;0.000;0.000;2022-08-19T03:52:06;2.13;;;1.40;;
48777;SDS011;34578;0.000;0.000;2022-08-19T03:57:07;1.10;;;1.05;;
48777;SDS011;34578;0.000;0.000;2022-08-19T04:02:10;1.27;;;1.17;;
48777;SDS011;34578;0.000;0.000;2022-08-19T04:07:12;1.25;;;1.15;;
48777;SDS011;34578;0.000;0.000;2022-08-19T04:12:16;1.40;;;1.30;;
48777;SDS011;34578;0.000;0.000;2022-08-19T04:17:16;1.60;;;1.50;;
48777;SDS011;34578;0.000;0.000;2022-08-19T04:22:16;2.25;;;2.10;;
48777;SDS011;34578;0.000;0.000;2022-08-19T04:27:18;1.40;;;1.30;;
48777;SDS011;34578;0.000;0.000;2022-08-19T04:32:18;1.83;;;1.73;;
48777;SDS011;34578;0.000;0.000;2022-08-19T04:37:19;1.40;;;1.30;;
48777;SDS011;34578;0.000;0.000;2022-08-19T04:42:19;1.03;;;1.03;;
48777;SDS011;34578;0.000;0.000;2022-08-19T04:47:39;1.00;;;1.00;;
48777;SDS011;34578;0.000;0.000;2022-08-19T04:52:40;1.67;;;1.50;;
48777;SDS011;34578;0.000;0.000;2022-08-19T04:57:42;1.35;;;1.25;;
48777;SDS011;34578;0.000;0.000;2022-08-19T05:02:43;1.60;;;1.50;;
48777;SDS011;34578;0.000;0.000;2022-08-19T05:07:43;2.63;;;2.43;;
48777;SDS011;34578;0.000;0.000;2022-08-19T05:12:43;1.60;;;1.50;;
48777;SDS011;34578;0.000;0.000;2022-08-19T05:17:44;1.70;;;1.60;;
48777;SDS011;34578;0.000;0.000;2022-08-19T05:23:04;2.08;;;1.92;;
48777;SDS011;34578;0.000;0.000;2022-08-19T05:28:04;1.33;;;1.23;;
48777;SDS011;34578;0.000;0.000;2022-08-19T05:33:05;1.65;;;1.40;;
48777;SDS011;34578;0.000;0.000;2022-08-19T05:38:07;1.45;;;1.35;;
48777;SDS011;34578;0.000;0.000;2022-08-19T05:43:08;1.40;;;1.30;;
48777;SDS011;34578;0.000;0.000;2022-08-19T05:48:09;2.15;;;1.95;;
48777;SDS011;34578;0.000;0.000;2022-08-19T05:53:11;2.65;;;2.45;;
48777;SDS011;34578;0.000;0.000;2022-08-19T05:58:12;1.75;;;1.65;;
48777;SDS011;34578;0.000;0.000;2022-08-19T06:03:12;1.83;;;1.73;;
48777;SDS011;34578;0.000;0.000;2022-08-19T06:08:12;1.80;;;1.70;;
48777;SDS011;34578;0.000;0.000;2022-08-19T06:13:13;1.40;;;1.30;;
48777;SDS011;34578;0.000;0.000;2022-08-19T06:18:13;1.45;;;1.35;;
48777;SDS011;34578;0.000;0.000;2022-08-19T06:23:15;1.40;;;1.30;;
48777;SDS011;34578;0.000;0.000;2022-08-19T06:28:16;1.67;;;1.58;;
48777;SDS011;34578;0.000;0.000;2022-08-19T06:33:16;2.30;;;2.10;;
48777;SDS011;34578;0.000;0.000;2022-08-19T06:38:17;2.90;;;2.70;;
48777;SDS011;34578;0.000;0.000;2022-08-19T06:43:17;1.40;;;1.30;;
48777;SDS011;34578;0.000;0.000;2022-08-19T06:48:17;1.60;;;1.50;;
48777;SDS011;34578;0.000;0.000;2022-08-19T06:53:18;2.05;;;1.80;;
48777;SDS011;34578;0.000;0.000;2022-08-19T06:58:19;1.80;;;1.70;;
48777;SDS011;34578;0.000;0.000;2022-08-19T07:03:19;1.83;;;1.73;;
48777;SDS011;34578;0.000;0.000;2022-08-19T07:08:21;1.75;;;1.65;;
48777;SDS011;34578;0.000;0.000;2022-08-19T07:13:21;1.93;;;1.70;;
48777;SDS011;34578;0.000;0.000;2022-08-19T07:18:22;2.42;;;2.22;;
48777;SDS011;34578;0.000;0.000;2022-08-19T07:23:22;2.97;;;2.78;;
48777;SDS011;34578;0.000;0.000;2022-08-19T07:28:23;2.80;;;2.50;;
48777;SDS011;34578;0.000;0.000;2022-08-19T07:33:23;1.92;;;1.73;;
48777;SDS011;34578;0.000;0.000;2022-08-19T07:38:24;1.80;;;1.70;;
48777;SDS011;34578;0.000;0.000;2022-08-19T07:43:24;2.00;;;1.90;;
48777;SDS011;34578;0.000;0.000;2022-08-19T07:48:27;1.95;;;1.80;;
48777;SDS011;34578;0.000;0.000;2022-08-19T07:53:29;2.05;;;1.90;;
48777;SDS011;34578;0.000;0.000;2022-08-19T07:58:32;2.20;;;2.10;;
48777;SDS011;34578;0.000;0.000;2022-08-19T08:03:35;1.70;;;1.60;;
48777;SDS011;34578;0.000;0.000;2022-08-19T08:08:54;2.25;;;2.05;;
48777;SDS011;34578;0.000;0.000;2022-08-19T08:14:15;1.63;;;1.52;;
48777;SDS011;34578;0.000;0.000;2022-08-19T08:19:20;2.08;;;1.98;;
48777;SDS011;34578;0.000;0.000;2022-08-19T08:24:21;2.10;;;2.00;;
48777;SDS011;34578;0.000;0.000;2022-08-19T08:29:22;1.90;;;1.80;;
48777;SDS011;34578;0.000;0.000;2022-08-19T08:34:22;1.77;;;1.67;;
48777;SDS011;34578;0.000;0.000;2022-08-19T08:39:23;1.73;;;1.63;;
48777;SDS011;34578;0.000;0.000;2022-08-19T08:44:27;1.63;;;1.53;;
48777;SDS011;34578;0.000;0.000;2022-08-19T08:54:45;3.22;;;3.03;;
48777;SDS011;34578;0.000;0.000;2022-08-19T08:59:47;2.17;;;1.98;;
48777;SDS011;34578;0.000;0.000;2022-08-19T09:04:51;2.40;;;2.20;;
48777;SDS011;34578;0.000;0.000;2022-08-19T09:09:52;2.08;;;1.90;;
48777;SDS011;34578;0.000;0.000;2022-08-19T09:15:05;1.92;;;1.83;;
48777;SDS011;34578;0.000;0.000;2022-08-19T09:20:21;1.98;;;1.77;;
48777;SDS011;34578;0.000;0.000;2022-08-19T09:25:23;1.50;;;1.40;;
48777;SDS011;34578;0.000;0.000;2022-08-19T09:30:26;2.20;;;2.05;;
48777;SDS011;34578;0.000;0.000;2022-08-19T09:35:28;2.08;;;1.98;;
48777;SDS011;34578;0.000;0.000;2022-08-19T09:40:30;2.40;;;2.20;;
48777;SDS011;34578;0.000;0.000;2022-08-19T09:45:30;1.98;;;1.88;;
48777;SDS011;34578;0.000;0.000;2022-08-19T09:50:31;2.05;;;1.88;;
48777;SDS011;34578;0.000;0.000;2022-08-19T09:55:34;2.65;;;2.45;;
48777;SDS011;34578;0.000;0.000;2022-08-19T10:00:34;2.07;;;1.97;;
48777;SDS011;34578;0.000;0.000;2022-08-19T10:05:37;2.80;;;2.60;;
48777;SDS011;34578;0.000;0.000;2022-08-19T10:10:50;2.85;;;2.42;;
48777;SDS011;34578;0.000;0.000;2022-08-19T10:15:50;2.70;;;2.50;;
48777;SDS011;34578;0.000;0.000;2022-08-19T10:21:03;2.50;;;2.30;;
48777;SDS011;34578;0.000;0.000;2022-08-19T10:26:08;1.80;;;1.70;;
48777;SDS011;34578;0.000;0.000;2022-08-19T10:31:17;1.77;;;1.67;;
48777;SDS011;34578;0.000;0.000;2022-08-19T10:36:20;2.30;;;2.10;;
48777;SDS011;34578;0.000;0.000;2022-08-19T10:41:23;1.83;;;1.73;;
48777;SDS011;34578;0.000;0.000;2022-08-19T10:46:25;2.47;;;2.28;;
48777;SDS011;34578;0.000;0.000;2022-08-19T10:51:27;2.80;;;2.60;;
48777;SDS011;34578;0.000;0.000;2022-08-19T10:56:46;3.25;;;2.83;;
48777;SDS011;34578;0.000;0.000;2022-08-19T11:01:53;3.40;;;3.10;;
48777;SDS011;34578;0.000;0.000;2022-08-19T11:06:55;2.30;;;2.10;;
48777;SDS011;34578;0.000;0.000;2022-08-19T11:11:55;1.75;;;1.65;;
48777;SDS011;34578;0.000;0.000;2022-08-19T11:16:56;1.75;;;1.65;;
48777;SDS011;34578;0.000;0.000;2022-08-19T11:21:56;1.90;;;1.80;;
48777;SDS011;34578;0.000;0.000;2022-08-19T11:27:06;2.00;;;1.90;;
48777;SDS011;34578;0.000;0.000;2022-08-19T11:32:09;1.83;;;1.73;;
48777;SDS011;34578;0.000;0.000;2022-08-19T11:37:10;1.70;;;1.60;;
48777;SDS011;34578;0.000;0.000;2022-08-19T11:42:10;2.40;;;2.20;;
48777;SDS011;34578;0.000;0.000;2022-08-19T11:47:29;3.20;;;2.90;;
48777;SDS011;34578;0.000;0.000;2022-08-19T11:52:30;3.38;;;3.08;;
48777;SDS011;34578;0.000;0.000;2022-08-19T11:57:31;1.70;;;1.60;;
48777;SDS011;34578;0.000;0.000;2022-08-19T12:02:31;2.03;;;1.80;;
48777;SDS011;34578;0.000;0.000;2022-08-19T12:07:32;1.90;;;1.80;;
48777;SDS011;34578;0.000;0.000;2022-08-19T12:12:33;2.05;;;1.95;;
48777;SDS011;34578;0.000;0.000;2022-08-19T12:17:34;2.40;;;2.20;;
48777;SDS011;34578;0.000;0.000;2022-08-19T12:22:35;2.73;;;1.90;;
48777;SDS011;34578;0.000;0.000;2022-08-19T12:27:35;2.38;;;2.17;;
48777;SDS011;34578;0.000;0.000;2022-08-19T12:32:36;3.08;;;2.88;;
48777;SDS011;34578;0.000;0.000;2022-08-19T12:37:38;3.00;;;2.80;;
48777;SDS011;34578;0.000;0.000;2022-08-19T12:42:39;1.83;;;1.73;;
48777;SDS011;34578;0.000;0.000;2022-08-19T12:47:42;2.00;;;1.90;;
48777;SDS011;34578;0.000;0.000;2022-08-19T12:52:43;1.95;;;1.85;;
48777;SDS011;34578;0.000;0.000;2022-08-19T12:57:43;3.13;;;2.93;;
48777;SDS011;34578;0.000;0.000;2022-08-19T13:02:45;2.50;;;2.30;;
48777;SDS011;34578;0.000;0.000;2022-08-19T13:07:46;1.77;;;1.67;;
48777;SDS011;34578;0.000;0.000;2022-08-19T13:12:48;2.97;;;2.77;;
48777;SDS011;34578;0.000;0.000;2022-08-19T13:17:51;3.88;;;3.58;;
48777;SDS011;34578;0.000;0.000;2022-08-19T13:22:53;3.25;;;2.97;;
48777;SDS011;34578;0.000;0.000;2022-08-19T13:27:54;1.90;;;1.80;;
48777;SDS011;34578;0.000;0.000;2022-08-19T13:32:55;1.80;;;1.70;;
48777;SDS011;34578;0.000;0.000;2022-08-19T13:38:10;2.97;;;2.77;;
48777;SDS011;34578;0.000;0.000;2022-08-19T13:43:11;3.20;;;2.92;;
48777;SDS011;34578;0.000;0.000;2022-08-19T13:48:12;2.80;;;2.60;;
48777;SDS011;34578;0.000;0.000;2022-08-19T13:53:12;3.00;;;2.80;;
48777;SDS011;34578;0.000;0.000;2022-08-19T13:58:12;3.13;;;2.93;;
48777;SDS011;34578;0.000;0.000;2022-08-19T14:03:13;3.92;;;3.63;;
48777;SDS011;34578;0.000;0.000;2022-08-19T14:08:13;3.42;;;3.08;;
48777;SDS011;34578;0.000;0.000;2022-08-19T14:13:15;2.20;;;2.00;;
48777;SDS011;34578;0.000;0.000;2022-08-19T14:18:18;3.05;;;2.85;;
48777;SDS011;34578;0.000;0.000;2022-08-19T14:23:18;3.55;;;3.33;;
48777;SDS011;34578;0.000;0.000;2022-08-19T14:28:19;3.75;;;3.50;;
48777;SDS011;34578;0.000;0.000;2022-08-19T14:33:20;3.50;;;3.20;;
48777;SDS011;34578;0.000;0.000;2022-08-19T14:38:20;4.33;;;3.40;;
48777;SDS011;34578;0.000;0.000;2022-08-19T14:43:20;3.70;;;3.40;;
48777;SDS011;34578;0.000;0.000;2022-08-19T14:48:22;4.05;;;3.75;;
48777;SDS011;34578;0.000;0.000;2022-08-19T14:53:22;3.67;;;3.37;;
48777;SDS011;34578;0.000;0.000;2022-08-19T14:58:22;2.20;;;2.03;;
48777;SDS011;34578;0.000;0.000;2022-08-19T15:03:23;3.70;;;3.40;;
48777;SDS011;34578;0.000;0.000;2022-08-19T15:08:23;4.63;;;4.22;;
48777;SDS011;34578;0.000;0.000;2022-08-19T15:13:25;3.67;;;3.38;;
48777;SDS011;34578;0.000;0.000;2022-08-19T15:18:27;3.75;;;3.45;;
48777;SDS011;34578;0.000;0.000;2022-08-19T15:23:27;3.70;;;3.40;;
48777;SDS011;34578;0.000;0.000;2022-08-19T15:28:28;3.53;;;3.22;;
48777;SDS011;34578;0.000;0.000;2022-08-19T15:33:33;3.75;;;3.45;;
48777;SDS011;34578;0.000;0.000;2022-08-19T15:38:38;3.80;;;3.50;;
48777;SDS011;34578;0.000;0.000;2022-08-19T15:43:40;2.17;;;2.08;;
48777;SDS011;34578;0.000;0.000;2022-08-19T15:48:41;2.60;;;2.40;;
48777;SDS011;34578;0.000;0.000;2022-08-19T15:53:42;2.30;;;2.10;;
48777;SDS011;34578;0.000;0.000;2022-08-19T15:58:42;2.67;;;2.47;;
48777;SDS011;34578;0.000;0.000;2022-08-19T16:04:02;1.92;;;1.83;;
48777;SDS011;34578;0.000;0.000;2022-08-19T16:09:21;1.90;;;1.80;;
48777;SDS011;34578;0.000;0.000;2022-08-19T16:14:24;1.98;;;1.75;;
48777;SDS011;34578;0.000;0.000;2022-08-19T16:19:25;2.30;;;2.10;;
48777;SDS011;34578;0.000;0.000;2022-08-19T16:24:26;3.20;;;3.00;;
48777;SDS011;34578;0.000;0.000;2022-08-19T16:29:28;2.28;;;2.15;;
48777;SDS011;34578;0.000;0.000;2022-08-19T16:34:28;2.42;;;2.22;;
48777;SDS011;34578;0.000;0.000;2022-08-19T16:39:29;2.25;;;2.15;;
48777;SDS011;34578;0.000;0.000;2022-08-19T16:44:30;3.45;;;3.15;;
48777;SDS011;34578;0.000;0.000;2022-08-19T16:49:30;2.22;;;2.03;;
48777;SDS011;34578;0.000;0.000;2022-08-19T16:54:31;1.95;;;1.85;;
48777;SDS011;34578;0.000;0.000;2022-08-19T16:59:32;2.57;;;2.37;;
48777;SDS011;34578;0.000;0.000;2022-08-19T17:04:33;2.78;;;2.58;;
48777;SDS011;34578;0.000;0.000;2022-08-19T17:09:34;2.80;;;2.60;;
48777;SDS011;34578;0.000;0.000;2022-08-19T17:14:34;2.57;;;2.37;;
48777;SDS011;34578;0.000;0.000;2022-08-19T17:19:34;2.43;;;2.23;;
48777;SDS011;34578;0.000;0.000;2022-08-19T17:24:35;2.43;;;2.23;;
48777;SDS011;34578;0.000;0.000;2022-08-19T17:29:37;2.70;;;2.50;;
48777;SDS011;34578;0.000;0.000;2022-08-19T17:34:37;2.40;;;2.20;;
48777;SDS011;34578;0.000;0.000;2022-08-19T17:39:38;1.90;;;1.80;;
48777;SDS011;34578;0.000;0.000;2022-08-19T17:44:38;2.30;;;2.10;;
48777;SDS011;34578;0.000;0.000;2022-08-19T17:49:39;2.70;;;2.50;;
48777;SDS011;34578;0.000;0.000;2022-08-19T17:54:40;3.20;;;2.60;;
48777;SDS011;34578;0.000;0.000;2022-08-19T17:59:40;2.25;;;2.05;;
48777;SDS011;34578;0.000;0.000;2022-08-19T18:04:41;2.53;;;2.33;;
48777;SDS011;34578;0.000;0.000;2022-08-19T18:09:41;2.50;;;2.30;;
48777;SDS011;34578;0.000;0.000;2022-08-19T18:14:41;2.93;;;2.73;;
48777;SDS011;34578;0.000;0.000;2022-08-19T18:19:42;2.47;;;2.27;;
48777;SDS011;34578;0.000;0.000;2022-08-19T18:24:42;3.40;;;3.20;;
48777;SDS011;34578;0.000;0.000;2022-08-19T18:29:43;3.50;;;3.20;;
48777;SDS011;34578;0.000;0.000;2022-08-19T18:34:43;3.75;;;3.45;;
48777;SDS011;34578;0.000;0.000;2022-08-19T18:39:44;2.88;;;2.67;;
48777;SDS011;34578;0.000;0.000;2022-08-19T18:45:04;2.45;;;2.25;;
48777;SDS011;34578;0.000;0.000;2022-08-19T18:50:24;2.22;;;2.10;;
48777;SDS011;34578;0.000;0.000;2022-08-19T18:55:24;2.50;;;2.30;;
48777;SDS011;34578;0.000;0.000;2022-08-19T19:00:28;2.78;;;2.58;;
48777;SDS011;34578;0.000;0.000;2022-08-19T19:05:29;2.03;;;1.92;;
48777;SDS011;34578;0.000;0.000;2022-08-19T19:10:30;2.77;;;2.57;;
48777;SDS011;34578;0.000;0.000;2022-08-19T19:15:30;3.40;;;3.10;;
48777;SDS011;34578;0.000;0.000;2022-08-19T19:20:31;3.70;;;3.40;;
48777;SDS011;34578;0.000;0.000;2022-08-19T19:25:32;2.90;;;2.70;;
48777;SDS011;34578;0.000;0.000;2022-08-19T19:30:33;1.90;;;1.80;;
48777;SDS011;34578;0.000;0.000;2022-08-19T19:35:33;2.57;;;2.37;;
48777;SDS011;34578;0.000;0.000;2022-08-19T19:40:34;3.00;;;2.80;;
48777;SDS011;34578;0.000;0.000;2022-08-19T19:45:34;3.07;;;2.87;;
48777;SDS011;34578;0.000;0.000;2022-08-19T19:50:35;3.78;;;3.47;;
48777;SDS011;34578;0.000;0.000;2022-08-19T19:55:36;3.53;;;3.23;;
48777;SDS011;34578;0.000;0.000;2022-08-19T20:00:36;3.50;;;3.20;;
48777;SDS011;34578;0.000;0.000;2022-08-19T20:05:36;3.70;;;3.40;;
48777;SDS011;34578;0.000;0.000;2022-08-19T20:10:37;2.83;;;2.63;;
48777;SDS011;34578;0.000;0.000;2022-08-19T20:15:40;2.33;;;2.13;;
48777;SDS011;34578;0.000;0.000;2022-08-19T20:20:42;2.22;;;2.05;;
48777;SDS011;34578;0.000;0.000;2022-08-19T20:25:45;3.60;;;3.30;;
48777;SDS011;34578;0.000;0.000;2022-08-19T20:30:45;3.23;;;3.00;;
48777;SDS011;34578;0.000;0.000;2022-08-19T20:35:46;3.65;;;3.28;;
48777;SDS011;34578;0.000;0.000;2022-08-19T20:40:46;3.40;;;3.10;;
48777;SDS011;34578;0.000;0.000;2022-08-19T20:45:47;3.58;;;3.28;;
48777;SDS011;34578;0.000;0.000;2022-08-19T20:50:47;3.77;;;3.47;;
48777;SDS011;34578;0.000;0.000;2022-08-19T20:55:48;3.25;;;2.97;;
48777;SDS011;34578;0.000;0.000;2022-08-19T21:00:50;2.15;;;2.05;;
48777;SDS011;34578;0.000;0.000;2022-08-19T21:05:52;2.83;;;2.63;;
48777;SDS011;34578;0.000;0.000;2022-08-19T21:10:54;2.53;;;2.33;;
48777;SDS011;34578;0.000;0.000;2022-08-19T21:15:55;2.97;;;2.78;;
48777;SDS011;34578;0.000;0.000;2022-08-19T21:20:56;3.20;;;3.00;;
48777;SDS011;34578;0.000;0.000;2022-08-19T21:25:57;3.47;;;3.27;;
48777;SDS011;34578;0.000;0.000;2022-08-19T21:30:59;3.65;;;3.35;;
48777;SDS011;34578;0.000;0.000;2022-08-19T21:35:59;3.88;;;3.58;;
48777;SDS011;34578;0.000;0.000;2022-08-19T21:41:00;3.20;;;3.00;;
48777;SDS011;34578;0.000;0.000;2022-08-19T21:46:01;2.45;;;2.25;;
48777;SDS011;34578;0.000;0.000;2022-08-19T21:51:02;2.80;;;2.60;;
48777;SDS011;34578;0.000;0.000;2022-08-19T21:56:03;3.08;;;2.88;;
48777;SDS011;34578;0.000;0.000;2022-08-19T22:01:05;3.08;;;2.88;;
48777;SDS011;34578;0.000;0.000;2022-08-19T22:06:06;3.60;;;3.30;;
48777;SDS011;34578;0.000;0.000;2022-08-19T22:11:08;3.33;;;3.13;;
48777;SDS011;34578;0.000;0.000;2022-08-19T22:16:08;3.80;;;3.50;;
48777;SDS011;34578;0.000;0.000;2022-08-19T22:21:09;3.67;;;3.38;;
48777;SDS011;34578;0.000;0.000;2022-08-19T22:26:10;3.80;;;3.50;;
48777;SDS011;34578;0.000;0.000;2022-08-19T22:31:11;2.33;;;2.15;;
48777;SDS011;34578;0.000;0.000;2022-08-19T22:36:12;2.50;;;2.33;;
48777;SDS011;34578;0.000;0.000;2022-08-19T22:41:13;2.97;;;2.78;;
48777;SDS011;34578;0.000;0.000;2022-08-19T22:46:15;2.90;;;2.70;;
48777;SDS011;34578;0.000;0.000;2022-08-19T22:51:19;2.83;;;2.63;;
48777;SDS011;34578;0.000;0.000;2022-08-19T22:56:38;2.90;;;2.70;;
48777;SDS011;34578;0.000;0.000;2022-08-19T23:01:38;3.00;;;2.65;;
48777;SDS011;34578;0.000;0.000;2022-08-19T23:06:40;3.45;;;3.15;;
48777;SDS011;34578;0.000;0.000;2022-08-19T23:11:41;3.60;;;3.30;;
48777;SDS011;34578;0.000;0.000;2022-08-19T23:16:41;2.23;;;2.10;;
48777;SDS011;34578;0.000;0.000;2022-08-19T23:21:41;3.08;;;2.88;;
48777;SDS011;34578;0.000;0.000;2022-08-19T23:26:42;2.63;;;2.42;;
48777;SDS011;34578;0.000;0.000;2022-08-19T23:32:03;2.70;;;2.50;;
48777;SDS011;34578;0.000;0.000;2022-08-19T23:37:06;2.90;;;2.70;;
48777;SDS011;34578;0.000;0.000;2022-08-19T23:42:10;3.08;;;2.88;;
48777;SDS011;34578;0.000;0.000;2022-08-19T23:47:11;3.03;;;2.83;;
48777;SDS011;34578;0.000;0.000;2022-08-19T23:52:11;3.13;;;2.87;;
48777;SDS011;34578;0.000;0.000;2022-08-19T23:57:11;3.60;;;3.30;;
